| time (UTC) | temp C | wind direction | speed KPH | gust KPH | rain 1hr cm | rain 24hr cm | rain mn cm | humidity % | barometer mb |
| 20260506193632 | 23 | 52 | 4.8 | 9.7 | 0.00 | 0.00 | 0.00 | 33 | 1015.7 |
| 20260506192117 | 23 | 355 | 1.6 | 19.3 | 0.00 | 0.00 | 0.00 | 33 | 1015.7 |
| 20260506185126 | 23 | 327 | 3.2 | 8.0 | 0.00 | 0.00 | 0.00 | 36 | 1015.8 |
| 20260506183632 | 22 | 211 | 3.2 | 8.0 | 0.00 | 0.00 | 0.00 | 44 | 1015.2 |
| 20260506182123 | 21 | 195 | 3.2 | 12.9 | 0.00 | 0.00 | 0.00 | 41 | 1015.4 |
| 20260506173619 | 20 | 248 | 1.6 | 6.4 | 0.00 | 0.00 | 0.00 | 43 | 1015.3 |
| 20260506162113 | 16 | 250 | 0.0 | 4.8 | 0.00 | 0.00 | 0.00 | 58 | 1014.9 |
| 20260506153612 | 13 | 146 | 0.0 | 1.6 | 0.00 | 0.00 | 0.00 | 68 | 1015.6 |
| 20260506145130 | 11 | 113 | 0.0 | 3.2 | 0.00 | 0.00 | 0.00 | 74 | 1015.1 |
| 20260506143621 | 10 | 272 | 0.0 | 3.2 | 0.00 | 0.00 | 0.00 | 80 | 1015.3 |
| 20260506142128 | 8 | 239 | 0.0 | 3.2 | 0.00 | 0.00 | 0.00 | 83 | 1014.7 |
| 20260506135116 | 6 | 121 | 0.0 | 0.0 | 0.00 | 0.00 | 0.00 | 89 | 1014.2 |
| 20260506133622 | 5 | 121 | 0.0 | 0.0 | 0.00 | 0.00 | 0.00 | 88 | 1013.8 |
| 20260506125119 | 5 | 121 | 0.0 | 1.6 | 0.00 | 0.00 | 0.00 | 88 | 1014.1 |
| 20260506120626 | 6 | 308 | 0.0 | 1.6 | 0.00 | 0.00 | 0.00 | 88 | 1013.6 |
| 20260506113612 | 6 | 297 | 0.0 | 1.6 | 0.00 | 0.00 | 0.00 | 87 | 1013.2 |
| 20260506110631 | 7 | 320 | 1.6 | 8.0 | 0.00 | 0.00 | 0.00 | 87 | 1013.8 |
| 20260506103615 | 7 | 140 | 0.0 | 8.0 | 0.00 | 0.00 | 0.00 | 85 | 1013.6 |
| 20260506102125 | 7 | 244 | 1.6 | 9.7 | 0.00 | 0.00 | 0.00 | 85 | 1013.7 |
| 20260506092127 | 7 | 194 | 0.0 | 8.0 | 0.00 | 0.00 | 0.00 | 84 | 1013.9 |
| 20260506090614 | 7 | 158 | 6.4 | 11.3 | 0.00 | 0.00 | 0.00 | 85 | 1013.7 |
| 20260506083620 | 7 | 261 | 0.0 | 8.0 | 0.00 | 0.00 | 0.00 | 84 | 1013.8 |
| 20260506072114 | 7 | 256 | 1.6 | 8.0 | 0.00 | 0.00 | 0.00 | 84 | 1013.9 |
| 20260506062116 | 7 | 110 | 0.0 | 6.4 | 0.00 | 0.00 | 0.00 | 84 | 1013.4 |
| 20260506060625 | 8 | 207 | 1.6 | 9.7 | 0.00 | 0.00 | 0.00 | 82 | 1012.8 |
| 20260506042121 | 8 | 213 | 0.0 | 9.7 | 0.00 | 0.00 | 0.00 | 79 | 1012.6 |
| 20260506033630 | 10 | 264 | 1.6 | 11.3 | 0.00 | 0.00 | 0.00 | 72 | 1012.4 |
| 20260506032118 | 10 | 232 | 1.6 | 11.3 | 0.00 | 0.00 | 0.00 | 73 | 1011.8 |
| 20260506030628 | 10 | 292 | 3.2 | 19.3 | 0.00 | 0.00 | 0.00 | 72 | 1012.0 |
| 20260506025124 | 10 | 24 | 4.8 | 11.3 | 0.00 | 0.00 | 0.00 | 69 | 1011.5 |
| 20260506023628 | 11 | 309 | 6.4 | 19.3 | 0.00 | 0.00 | 0.00 | 67 | 1011.5 |
| 20260506022116 | 11 | 342 | 3.2 | 16.1 | 0.00 | 0.00 | 0.00 | 65 | 1011.8 |
| 20260506015119 | 12 | 288 | 3.2 | 19.3 | 0.00 | 0.00 | 0.00 | 65 | 1011.3 |
| 20260506012113 | 13 | 40 | 3.2 | 17.7 | 0.00 | 0.00 | 0.00 | 62 | 1011.1 |
| 20260506010623 | 13 | 342 | 4.8 | 20.9 | 0.00 | 0.00 | 0.00 | 62 | 1011.1 |
| 20260506005119 | 13 | 257 | 8.0 | 22.5 | 0.00 | 0.00 | 0.00 | 63 | 1011.1 |
| 20260506003624 | 13 | 250 | 6.4 | 19.3 | 0.00 | 0.00 | 0.00 | 62 | 1010.8 |
| 20260506000621 | 13 | 275 | 4.8 | 14.5 | 0.00 | 0.00 | 0.00 | 61 | 1010.5 |
| 20260505233629 | 14 | 319 | 1.6 | 22.5 | 0.00 | 0.00 | 0.00 | 59 | 1010.9 |
| 20260505230626 | 15 | 334 | 4.8 | 20.9 | 0.00 | 0.00 | 0.00 | 57 | 1011.0 |
| 20260505225127 | 15 | 295 | 6.4 | 19.3 | 0.00 | 0.00 | 0.00 | 56 | 1011.0 |
| 20260505223612 | 15 | 343 | 3.2 | 14.5 | 0.00 | 0.00 | 0.00 | 53 | 1011.0 |
| 20260505222122 | 15 | 289 | 4.8 | 14.5 | 0.00 | 0.00 | 0.00 | 58 | 1010.4 |
| 20260505220626 | 14 | 248 | 6.4 | 20.9 | 0.00 | 0.00 | 0.00 | 61 | 1010.5 |
| 20260505213614 | 13 | 242 | 6.4 | 20.9 | 0.00 | 0.00 | 0.00 | 61 | 1010.8 |
| 20260505210629 | 15 | 184 | 3.2 | 11.3 | 0.00 | 0.00 | 0.00 | 61 | 1010.4 |
| 20260505205131 | 15 | 248 | 1.6 | 14.5 | 0.00 | 0.00 | 0.00 | 60 | 1010.5 |
| 20260505203616 | 15 | 247 | 3.2 | 9.7 | 0.00 | 0.00 | 0.00 | 60 | 1010.6 |